createdAt,value
2024-01-15T00:00:08.756Z,63.58
2024-01-15T00:01:08.846Z,63.42
2024-01-15T00:02:08.734Z,63.37
2024-01-15T00:03:08.760Z,63.47
2024-01-15T00:04:08.823Z,63.36
2024-01-15T00:05:08.740Z,63.31
2024-01-15T00:06:08.819Z,63.27
2024-01-15T00:07:08.821Z,63.47
2024-01-15T00:08:08.738Z,63.30
2024-01-15T00:17:16.201Z,62.83
2024-01-15T00:17:39.193Z,62.62
2024-01-15T00:18:39.203Z,62.68
2024-01-15T00:19:39.224Z,62.95
2024-01-15T00:20:39.141Z,63.22
2024-01-15T00:21:39.195Z,63.39
2024-01-15T00:22:39.168Z,63.82
2024-01-15T00:23:39.167Z,64.04
2024-01-15T00:24:39.235Z,64.27
2024-01-15T00:25:39.154Z,64.92
2024-01-15T00:26:39.196Z,65.12
2024-01-15T00:27:39.185Z,65.52
2024-01-15T00:28:39.150Z,65.44
2024-01-15T00:29:39.210Z,65.81
2024-01-15T00:30:39.233Z,66.33
2024-01-15T00:31:39.273Z,66.14
2024-01-15T00:32:39.247Z,65.84
2024-01-15T00:33:39.243Z,66.04
2024-01-15T00:34:39.271Z,65.75
2024-01-15T00:35:39.156Z,65.42
2024-01-15T00:36:39.246Z,64.86
2024-01-15T01:09:41.267Z,64.76
2024-01-15T01:10:04.226Z,64.53
2024-01-15T01:11:04.217Z,64.63
2024-01-15T01:12:04.276Z,64.67
2024-01-15T01:13:04.234Z,64.66
2024-01-15T01:14:04.221Z,64.94
2024-01-15T01:15:04.307Z,65.76
2024-01-15T01:16:04.229Z,66.44
2024-01-15T01:17:04.262Z,66.96
2024-01-15T01:18:04.650Z,66.90
2024-01-15T01:19:04.411Z,66.70
2024-01-15T01:20:04.385Z,66.80
2024-01-15T01:21:04.284Z,66.86
2024-01-15T01:22:04.238Z,66.51
2024-01-15T01:23:04.276Z,66.09
2024-01-15T01:24:04.272Z,65.58
2024-01-15T01:25:04.244Z,65.52
2024-01-15T01:26:04.239Z,65.05
2024-01-15T01:27:04.305Z,64.83
2024-01-15T01:28:04.267Z,64.67
2024-01-15T01:29:04.257Z,64.42
2024-01-15T01:30:04.371Z,64.25
2024-01-15T01:31:04.351Z,64.18
2024-01-15T01:32:04.266Z,64.29
2024-01-15T01:33:04.362Z,64.17
2024-01-15T01:34:04.342Z,63.84
2024-01-15T01:35:04.287Z,63.63
2024-01-15T01:36:04.289Z,63.71
2024-01-15T01:37:04.276Z,63.70
2024-01-15T01:38:04.268Z,63.73
2024-01-15T01:39:04.346Z,63.88
2024-01-15T01:40:04.285Z,64.04
2024-01-15T01:41:04.287Z,63.89
2024-01-15T01:42:04.290Z,63.97
2024-01-15T01:43:04.294Z,64.09
2024-01-15T01:44:04.304Z,64.32
2024-01-15T01:45:04.326Z,64.27
2024-01-15T01:46:04.348Z,64.52
2024-01-15T01:47:04.384Z,64.46
2024-01-15T01:48:04.491Z,64.24
2024-01-15T01:49:04.511Z,63.91
2024-01-15T01:50:04.457Z,64.18
2024-01-15T01:51:04.572Z,65.03
2024-01-15T01:52:04.588Z,65.21
2024-01-15T01:53:04.687Z,65.09
2024-01-15T01:54:04.692Z,65.15
2024-01-15T01:55:04.685Z,65.96
2024-01-15T01:56:04.724Z,65.42
2024-01-15T01:57:04.971Z,65.10
2024-01-15T01:58:04.808Z,64.89
2024-01-15T01:59:04.861Z,64.82
2024-01-15T02:00:05.058Z,64.90
2024-01-15T02:01:05.008Z,64.81
2024-01-15T02:02:05.170Z,64.55
2024-01-15T02:03:05.071Z,64.14
2024-01-15T02:04:05.223Z,64.51
2024-01-15T02:05:05.156Z,64.26
2024-01-15T02:06:05.321Z,64.09
2024-01-15T02:07:05.285Z,64.11
2024-01-15T02:08:05.234Z,64.05
2024-01-15T02:09:05.284Z,63.86
2024-01-15T02:21:23.360Z,63.89
2024-01-15T02:21:48.795Z,63.90
2024-01-15T02:22:48.738Z,64.05
2024-01-15T02:23:48.745Z,63.93
2024-01-15T02:24:48.861Z,64.14
2024-01-15T02:25:48.758Z,64.04
2024-01-15T02:26:48.767Z,63.90
2024-01-15T02:27:48.830Z,63.91
2024-01-15T02:28:48.776Z,63.86
2024-01-15T02:29:48.753Z,63.90
2024-01-15T02:30:48.821Z,63.72
2024-01-15T02:31:48.992Z,63.56
2024-01-15T02:32:48.813Z,63.42
2024-01-15T02:33:48.949Z,63.47
2024-01-15T02:34:48.925Z,63.41
2024-01-15T02:35:48.781Z,63.81
2024-01-15T02:39:49.678Z,64.56
2024-01-15T02:40:16.596Z,64.92
2024-01-15T02:41:16.530Z,64.69
2024-01-15T02:42:16.561Z,64.84
2024-01-15T02:43:16.535Z,65.21
2024-01-15T02:44:16.526Z,65.08
2024-01-15T02:45:16.591Z,65.02
2024-01-15T02:46:16.544Z,64.91
2024-01-15T02:47:16.548Z,64.54
2024-01-15T02:48:16.758Z,64.22
2024-01-15T02:49:16.602Z,64.31
2024-01-15T02:50:16.568Z,64.07
2024-01-15T02:51:16.596Z,63.92
2024-01-15T02:52:16.557Z,63.80
2024-01-15T02:53:16.550Z,63.51
2024-01-15T02:54:16.608Z,63.25
2024-01-15T02:55:16.561Z,63.18
2024-01-15T02:56:16.598Z,63.14
2024-01-15T02:57:16.586Z,62.98
2024-01-15T02:58:16.585Z,63.01
2024-01-15T02:59:16.555Z,62.94
2024-01-15T03:00:16.760Z,62.94
2024-01-15T03:01:16.680Z,62.88
2024-01-15T03:02:16.573Z,63.03
2024-01-15T03:03:16.602Z,63.04
2024-01-15T03:04:16.657Z,63.18
2024-01-15T03:05:16.641Z,63.09
2024-01-15T03:06:16.655Z,63.19
2024-01-15T03:07:16.621Z,63.10
2024-01-15T03:08:16.585Z,63.11
2024-01-15T03:09:16.625Z,63.19
2024-01-15T03:10:16.578Z,63.30
2024-01-15T03:11:16.585Z,63.24
2024-01-15T03:12:16.617Z,63.09
2024-01-15T03:13:16.624Z,63.09
2024-01-15T03:14:16.596Z,62.99
2024-01-15T03:15:16.654Z,62.75
2024-01-15T03:16:16.606Z,62.64
2024-01-15T03:17:16.611Z,62.68
2024-01-15T03:18:16.730Z,62.65
2024-01-15T03:19:16.717Z,62.81
2024-01-15T03:20:16.618Z,62.48
2024-01-15T03:21:16.724Z,62.55
2024-01-15T03:22:16.605Z,62.66
2024-01-15T03:23:16.628Z,62.52
2024-01-15T03:24:16.676Z,62.47
2024-01-15T03:25:16.615Z,62.55
2024-01-15T03:26:16.630Z,63.49
2024-01-15T03:27:16.661Z,63.27
2024-01-15T03:28:16.638Z,63.42
2024-01-15T03:29:16.659Z,63.47
2024-01-15T03:30:16.910Z,63.61
2024-01-15T03:31:16.725Z,63.60
2024-01-15T03:32:16.633Z,63.57
2024-01-15T03:33:16.747Z,63.54
2024-01-15T03:34:16.797Z,63.66
2024-01-15T03:35:16.750Z,63.97
2024-01-15T03:36:16.872Z,63.68
2024-01-15T03:37:16.786Z,63.55
2024-01-15T03:38:16.820Z,63.55
2024-01-15T03:39:16.933Z,63.47
2024-01-15T03:40:19.350Z,63.54
2024-01-15T03:41:16.866Z,63.32
2024-01-15T03:42:17.104Z,63.30
2024-01-15T03:43:16.877Z,63.25
2024-01-15T03:44:16.903Z,63.22
2024-01-15T03:45:16.894Z,63.38
2024-01-15T03:46:16.887Z,63.24
2024-01-15T04:33:34.809Z,66.27
2024-01-15T04:33:57.690Z,66.22
2024-01-15T04:34:57.588Z,66.27
2024-01-15T04:35:57.624Z,66.68
2024-01-15T04:36:57.637Z,67.04
2024-01-15T04:37:57.559Z,66.93
2024-01-15T04:38:57.587Z,66.35
2024-01-15T04:39:57.642Z,66.39
2024-01-15T04:40:58.673Z,66.37
2024-01-15T04:41:57.581Z,66.38
2024-01-15T04:42:57.558Z,66.78
2024-01-15T04:43:57.575Z,66.47
2024-01-15T04:44:57.590Z,66.32
2024-01-15T04:45:57.733Z,66.03
2024-01-15T04:47:00.947Z,65.68
2024-01-15T04:48:08.909Z,65.82
2024-01-15T04:49:09.000Z,65.70
2024-01-15T04:50:08.808Z,65.67
2024-01-15T04:51:08.820Z,65.34
2024-01-15T04:52:08.792Z,65.10
2024-01-15T04:53:11.823Z,65.34
2024-01-15T04:54:08.874Z,66.23
2024-01-15T04:55:08.818Z,66.05
2024-01-15T04:56:08.814Z,67.18
2024-01-15T04:57:08.839Z,67.77
2024-01-15T04:58:08.799Z,67.86
2024-01-15T04:59:08.835Z,68.50
2024-01-15T05:00:08.824Z,68.53
2024-01-15T05:01:08.982Z,67.41
2024-01-15T05:02:08.857Z,66.91
2024-01-15T05:03:08.945Z,66.73
2024-01-15T05:04:08.969Z,66.64
2024-01-15T05:05:08.931Z,66.31
2024-01-15T05:06:08.892Z,65.92
2024-01-15T05:07:08.885Z,65.90
2024-01-15T06:07:00.841Z,68.44
2024-01-15T06:07:22.487Z,69.48
2024-01-15T06:08:22.531Z,69.45
2024-01-15T06:09:22.546Z,68.21
2024-01-15T06:10:22.583Z,67.83
2024-01-15T06:11:22.649Z,67.46
2024-01-15T06:12:22.688Z,67.44
2024-01-15T06:13:22.708Z,67.74
2024-01-15T06:14:22.728Z,68.11
2024-01-15T06:15:22.838Z,67.59
2024-01-15T06:16:22.843Z,67.57
2024-01-15T06:17:22.890Z,68.41
2024-01-15T06:18:22.997Z,68.44
2024-01-15T06:19:23.200Z,68.86
2024-01-15T06:20:23.115Z,68.21
2024-01-15T06:21:23.162Z,68.29
2024-01-15T06:22:23.183Z,67.36
2024-01-15T06:23:23.264Z,67.38
2024-01-15T06:24:23.312Z,67.04
2024-01-15T06:25:23.382Z,66.81
2024-01-15T06:26:23.397Z,66.55
2024-01-15T06:27:23.505Z,66.51
2024-01-15T06:28:23.534Z,66.59
2024-01-15T06:29:23.637Z,66.50
2024-01-15T06:30:27.242Z,66.31
2024-01-15T06:34:09.493Z,67.56
2024-01-15T06:34:32.439Z,67.14
2024-01-15T06:35:33.585Z,66.84
2024-01-15T06:36:32.375Z,67.10
2024-01-15T06:37:32.350Z,67.11
2024-01-15T06:38:32.387Z,67.65
2024-01-15T06:39:32.354Z,67.73
2024-01-15T06:56:10.153Z,66.17
2024-01-15T06:56:33.150Z,66.35
2024-01-15T06:57:33.280Z,66.61
2024-01-15T06:58:33.170Z,66.54
2024-01-15T06:59:33.150Z,66.91
2024-01-15T07:00:33.239Z,66.65
2024-01-15T07:01:33.243Z,66.34
2024-01-15T07:02:33.207Z,66.63
2024-01-15T07:03:33.312Z,66.51
2024-01-15T07:04:33.150Z,67.30
2024-01-15T07:05:33.212Z,67.63
2024-01-15T07:06:33.185Z,66.62
2024-01-15T07:07:33.153Z,65.32
2024-01-15T07:08:33.174Z,65.10
2024-01-15T07:09:33.164Z,65.07
2024-01-15T07:10:36.204Z,65.93
2024-01-15T07:11:33.172Z,65.00
2024-01-15T07:12:33.348Z,65.03
2024-01-15T07:13:33.341Z,65.24
2024-01-15T07:14:33.154Z,65.23
2024-01-15T07:15:33.906Z,65.04
2024-01-15T07:16:37.614Z,65.13
2024-01-15T07:17:34.246Z,65.09
2024-01-15T07:18:33.477Z,65.07
2024-01-15T07:19:33.412Z,65.47
2024-01-15T07:20:33.228Z,65.25
2024-01-15T07:21:33.253Z,65.07
2024-01-15T07:22:33.196Z,64.74
2024-01-15T07:23:33.186Z,64.66
2024-01-15T07:24:33.207Z,64.52
2024-01-15T07:25:33.186Z,64.23
2024-01-15T07:26:33.213Z,64.09
2024-01-15T07:27:33.388Z,64.14
2024-01-15T07:28:33.206Z,64.33
2024-01-15T07:29:33.213Z,64.45
2024-01-15T07:30:33.303Z,64.58
2024-01-15T07:31:33.435Z,64.17
2024-01-15T07:32:33.243Z,63.86
2024-01-15T07:33:33.413Z,63.40
2024-01-15T07:34:33.333Z,63.61
2024-01-15T07:35:33.308Z,63.60
2024-01-15T07:36:33.439Z,63.42
2024-01-15T07:37:33.391Z,62.26
2024-01-15T07:38:33.434Z,62.09
2024-01-15T07:39:33.491Z,62.18
2024-01-15T07:40:33.900Z,62.73
2024-01-15T07:41:33.546Z,62.95
2024-01-15T07:42:33.692Z,62.99
2024-01-15T07:43:33.622Z,62.91
2024-01-15T07:44:33.629Z,62.82
2024-01-15T07:45:33.721Z,62.83
2024-01-15T07:46:33.678Z,62.56
2024-01-15T07:47:33.948Z,62.98
2024-01-15T07:48:33.816Z,64.03
2024-01-15T07:49:33.918Z,64.46
2024-01-15T07:50:33.822Z,64.77
2024-01-15T07:51:33.910Z,64.51
2024-01-15T07:52:33.918Z,63.07
2024-01-15T07:53:34.012Z,63.43
2024-01-15T07:54:34.107Z,63.59
2024-01-15T07:55:34.064Z,63.49
2024-01-15T07:56:34.066Z,63.15
2024-01-15T07:57:34.106Z,63.46
2024-01-15T07:58:34.116Z,63.37
2024-01-15T07:59:34.115Z,63.26
2024-01-15T08:00:34.226Z,62.84
2024-01-15T08:01:34.283Z,62.82
2024-01-15T08:02:37.105Z,62.96
2024-01-15T08:03:34.937Z,63.28
2024-01-15T08:04:34.443Z,63.40
2024-01-15T08:05:34.310Z,63.37
2024-01-15T08:06:34.353Z,63.48
2024-01-15T08:07:34.262Z,63.41
2024-01-15T08:08:34.269Z,63.44
2024-01-15T08:09:34.340Z,63.07
2024-01-15T08:10:34.256Z,62.94
2024-01-15T08:11:34.312Z,62.69
2024-01-15T08:12:34.364Z,62.81
2024-01-15T08:13:34.266Z,62.84
2024-01-15T08:14:34.256Z,62.66
2024-01-15T08:15:34.304Z,62.93
2024-01-15T08:16:34.259Z,63.01
2024-01-15T08:17:34.339Z,62.94
2024-01-15T08:18:34.474Z,63.11
2024-01-15T08:19:34.509Z,63.12
2024-01-15T08:20:34.314Z,62.92
2024-01-15T08:21:34.306Z,62.86
2024-01-15T08:22:34.286Z,62.73
2024-01-15T08:23:34.337Z,62.73
2024-01-15T08:24:34.384Z,62.69
2024-01-15T08:25:34.294Z,62.99
2024-01-15T08:26:34.274Z,62.81
2024-01-15T08:27:34.338Z,63.01
2024-01-15T08:28:34.303Z,63.44
2024-01-15T08:29:34.285Z,63.49
2024-01-15T08:30:34.434Z,63.04
2024-01-15T08:31:34.497Z,62.68
2024-01-15T08:32:34.343Z,62.53
2024-01-15T08:33:34.417Z,62.39
2024-01-15T08:34:34.356Z,62.23
2024-01-15T08:35:34.349Z,62.24
2024-01-15T08:36:34.324Z,61.56
2024-01-15T08:37:34.318Z,61.16
2024-01-15T08:38:34.317Z,61.42
2024-01-15T08:39:34.383Z,61.52
2024-01-15T08:40:34.324Z,61.38
2024-01-15T08:41:34.345Z,60.76
2024-01-15T08:42:34.423Z,60.69
2024-01-15T08:43:34.324Z,60.76
2024-01-15T08:44:34.338Z,60.18
2024-01-15T08:45:34.383Z,60.01
2024-01-15T08:46:34.319Z,59.99
2024-01-15T08:47:34.487Z,60.21
2024-01-15T08:48:34.481Z,59.54
2024-01-15T08:49:34.652Z,60.14
2024-01-15T08:50:34.529Z,60.28
2024-01-15T08:51:34.530Z,59.78
2024-01-15T08:52:34.556Z,59.28
2024-01-15T08:53:34.574Z,58.76
2024-01-15T08:54:34.724Z,58.52
2024-01-15T08:55:34.695Z,58.87
2024-01-15T08:56:34.694Z,59.06
2024-01-15T08:57:34.909Z,58.42
2024-01-15T08:58:34.821Z,59.27
2024-01-15T08:59:34.865Z,59.56
2024-01-15T09:00:34.986Z,59.47
2024-01-15T09:01:34.960Z,59.90
2024-01-15T09:02:34.984Z,59.30
2024-01-15T09:03:35.204Z,59.43
2024-01-15T09:04:35.108Z,59.72
2024-01-15T09:05:35.083Z,59.63
2024-01-15T09:06:35.160Z,60.01
2024-01-15T09:07:35.150Z,59.58
2024-01-15T09:08:35.304Z,59.70
2024-01-15T09:09:35.317Z,60.11
2024-01-15T09:10:35.304Z,59.58
2024-01-15T09:13:29.158Z,60.09
2024-01-15T09:13:53.855Z,59.93
2024-01-15T09:14:53.852Z,61.68
2024-01-15T09:15:53.993Z,61.44
2024-01-15T09:17:31.243Z,60.89
2024-01-15T09:17:54.081Z,61.08
2024-01-15T09:18:54.329Z,60.93
2024-01-15T09:19:54.029Z,61.72
2024-01-15T09:20:54.080Z,61.58
2024-01-15T09:21:54.068Z,62.06
2024-01-15T09:22:53.988Z,61.90
2024-01-15T09:23:54.127Z,61.57
2024-01-15T09:24:54.049Z,61.68
2024-01-15T09:25:54.060Z,61.10
2024-01-15T09:26:54.072Z,62.21
2024-01-15T09:27:54.200Z,61.67
2024-01-15T09:28:54.050Z,61.59
2024-01-15T09:30:19.856Z,61.52
2024-01-15T09:30:54.449Z,61.73
2024-01-15T09:31:54.139Z,61.61
2024-01-15T09:33:01.565Z,61.06
2024-01-15T09:33:55.266Z,61.46
2024-01-15T09:34:56.712Z,61.68
2024-01-15T09:35:58.214Z,62.96
2024-01-15T09:36:54.239Z,62.93
2024-01-15T09:38:26.381Z,61.41
2024-01-15T09:38:54.184Z,60.19
2024-01-15T09:39:54.073Z,59.80
2024-01-15T09:40:54.093Z,59.06
2024-01-15T09:41:54.004Z,58.54
2024-01-15T09:42:54.140Z,59.14
2024-01-15T09:43:53.995Z,59.63
2024-01-15T09:44:54.046Z,60.11
2024-01-15T09:45:54.040Z,59.45
2024-01-15T09:46:54.046Z,59.86
2024-01-15T09:47:54.051Z,59.90
2024-01-15T09:48:54.153Z,60.05
2024-01-15T09:49:54.288Z,59.48
2024-01-15T09:50:54.125Z,59.33
2024-01-15T09:52:02.565Z,59.74
2024-01-15T09:52:55.077Z,59.95
2024-01-15T09:53:54.043Z,60.05
2024-01-15T09:54:54.121Z,60.33
2024-01-15T09:55:54.066Z,59.92
2024-01-15T09:56:54.005Z,60.75
2024-01-15T09:57:54.183Z,60.44
2024-01-15T09:58:54.219Z,59.92
2024-01-15T09:59:54.119Z,60.06
2024-01-15T10:00:54.202Z,60.31
2024-01-15T10:01:54.062Z,59.92
2024-01-15T10:02:54.122Z,58.83
2024-01-15T10:03:54.147Z,58.67
2024-01-15T10:04:54.268Z,58.62
2024-01-15T10:05:54.073Z,58.71
2024-01-15T10:06:54.150Z,58.91
2024-01-15T10:07:54.086Z,58.77
2024-01-15T10:08:54.166Z,58.57
2024-01-15T10:09:54.231Z,58.64
2024-01-15T10:10:54.144Z,58.64
2024-01-15T10:11:54.196Z,58.86
2024-01-15T10:12:54.291Z,58.84
2024-01-15T10:13:57.546Z,57.68
2024-01-15T10:14:54.273Z,57.64
2024-01-15T10:15:54.339Z,58.65
2024-01-15T10:16:54.319Z,58.01
2024-01-15T10:17:54.407Z,57.94
2024-01-15T10:18:54.406Z,59.03
2024-01-15T10:19:54.331Z,58.86
2024-01-15T10:20:54.377Z,59.36
2024-01-15T10:21:54.304Z,59.23
2024-01-15T10:22:54.296Z,58.72
2024-01-15T10:23:54.309Z,58.56
2024-01-15T10:24:54.465Z,59.03
2024-01-15T10:25:54.307Z,58.59
2024-01-15T10:26:54.300Z,58.27
2024-01-15T10:27:54.327Z,58.40
2024-01-15T10:28:54.313Z,57.94
2024-01-15T10:29:54.302Z,58.02
2024-01-15T10:30:54.504Z,57.70
2024-01-15T10:31:54.468Z,57.47
2024-01-15T10:32:54.371Z,57.43
2024-01-15T10:33:54.530Z,57.24
2024-01-15T10:34:54.583Z,57.51
2024-01-15T10:35:54.341Z,58.21
2024-01-15T10:36:54.525Z,58.71
2024-01-15T10:37:54.320Z,58.97
2024-01-15T10:38:54.350Z,59.93
2024-01-15T10:39:54.410Z,59.89
2024-01-15T10:40:54.370Z,59.83
2024-01-15T10:41:54.394Z,60.33
2024-01-15T10:42:54.418Z,60.40
2024-01-15T10:43:54.335Z,60.32
2024-01-15T10:46:32.950Z,61.45
2024-01-15T10:46:54.583Z,61.06
2024-01-15T10:47:54.713Z,60.62
2024-01-15T10:48:54.751Z,60.86
2024-01-15T10:49:54.897Z,60.98
2024-01-15T10:50:54.785Z,61.02
2024-01-15T10:51:54.878Z,60.57
2024-01-15T10:52:54.906Z,60.39
2024-01-15T10:53:54.910Z,60.57
2024-01-15T10:54:55.044Z,60.39
2024-01-15T10:55:55.046Z,59.86
2024-01-15T10:56:55.072Z,59.38
2024-01-15T10:57:55.093Z,59.72
2024-01-15T10:58:58.005Z,59.91
2024-01-15T10:59:55.126Z,59.74
2024-01-15T11:00:55.226Z,59.78
2024-01-15T11:01:56.066Z,59.86
2024-01-15T11:02:55.136Z,59.70
2024-01-15T11:03:55.194Z,59.56
2024-01-15T11:04:55.283Z,59.74
2024-01-15T11:05:55.166Z,59.67
2024-01-15T11:06:55.961Z,59.30
2024-01-15T11:07:55.116Z,59.55
2024-01-15T11:08:55.123Z,60.17
2024-01-15T11:09:55.249Z,60.46
2024-01-15T11:10:55.144Z,60.18
2024-01-15T11:11:55.150Z,60.49
2024-01-15T11:12:55.154Z,60.33
2024-01-15T11:13:55.131Z,60.46
2024-01-15T11:14:55.188Z,60.43
2024-01-15T11:15:55.222Z,60.52
2024-01-15T11:16:55.184Z,60.22
2024-01-15T11:17:55.287Z,60.15
2024-01-15T11:18:55.317Z,59.86
2024-01-15T11:19:55.370Z,59.47
2024-01-15T11:20:55.343Z,59.39
2024-01-15T11:21:55.423Z,59.65
2024-01-15T11:22:55.436Z,59.16
2024-01-15T11:23:55.466Z,59.03
2024-01-15T11:24:55.479Z,59.09
2024-01-15T11:25:55.527Z,58.90
2024-01-15T11:26:55.569Z,58.66
2024-01-15T11:27:55.670Z,58.80
2024-01-15T11:28:55.631Z,58.62
2024-01-15T11:29:55.687Z,58.56
2024-01-15T11:30:55.880Z,58.55
2024-01-15T11:31:55.979Z,58.58
2024-01-15T11:32:55.967Z,58.06
2024-01-15T11:33:56.070Z,58.55
2024-01-15T11:34:56.072Z,58.65
2024-01-15T11:35:55.939Z,58.44
2024-01-15T11:36:56.034Z,58.21
2024-01-15T11:37:56.153Z,58.46
2024-01-15T11:38:55.991Z,58.24
2024-01-15T11:39:56.115Z,58.55
2024-01-15T11:40:55.995Z,58.46
2024-01-15T11:41:56.030Z,58.80
2024-01-15T11:42:56.199Z,58.70
2024-01-15T11:43:56.159Z,58.68
2024-01-15T11:44:56.166Z,58.48
2024-01-15T11:45:56.220Z,58.00
2024-01-15T11:46:56.245Z,57.62
2024-01-15T11:47:56.312Z,58.12
2024-01-15T11:48:56.364Z,57.34
2024-01-15T11:49:56.395Z,56.82
2024-01-15T11:50:56.592Z,57.25
2024-01-15T11:51:56.526Z,56.82
2024-01-15T11:52:56.472Z,57.24
2024-01-15T11:53:56.679Z,56.88
2024-01-15T11:54:56.714Z,56.78
2024-01-15T11:55:56.543Z,57.13
2024-01-15T11:56:56.647Z,57.24
2024-01-15T11:57:56.736Z,57.25
2024-01-15T11:58:56.754Z,57.19
2024-01-15T11:59:56.756Z,56.56
2024-01-15T12:00:57.045Z,56.49
2024-01-15T12:01:56.963Z,56.65
2024-01-15T12:02:56.889Z,56.52
2024-01-15T12:03:57.031Z,56.46
2024-01-15T12:04:56.982Z,56.83
2024-01-15T12:05:57.064Z,56.74
2024-01-15T12:06:57.235Z,56.39
2024-01-15T12:07:57.079Z,56.17
2024-01-15T12:08:57.103Z,56.39
2024-01-15T12:09:57.188Z,56.33
2024-01-15T12:10:57.285Z,56.21
2024-01-15T12:11:57.301Z,56.12
2024-01-15T12:12:57.322Z,56.08
2024-01-15T12:13:57.307Z,56.28
2024-01-15T12:14:57.358Z,56.12
2024-01-15T12:15:57.513Z,56.26
2024-01-15T12:16:57.452Z,56.54
2024-01-15T12:17:57.568Z,57.22
2024-01-15T12:18:57.652Z,57.41
2024-01-15T12:19:57.595Z,57.35
2024-01-15T12:20:57.639Z,57.68
2024-01-15T12:21:57.682Z,58.40
2024-01-15T12:23:02.145Z,58.38
2024-01-15T12:23:58.697Z,58.37
2024-01-15T12:24:57.721Z,58.49
2024-01-15T12:25:57.699Z,58.51
2024-01-15T12:26:57.729Z,59.07
2024-01-15T12:27:57.843Z,60.47
2024-01-15T12:28:58.051Z,60.91
2024-01-15T12:29:57.715Z,60.86
2024-01-15T12:30:57.864Z,61.11
2024-01-15T12:31:57.793Z,61.34
2024-01-15T12:32:57.771Z,60.89
2024-01-15T12:33:57.786Z,60.55
2024-01-15T12:34:57.724Z,61.30
2024-01-15T12:35:57.764Z,60.95
2024-01-15T12:36:57.833Z,60.95
2024-01-15T12:37:57.859Z,60.84
2024-01-15T12:38:57.900Z,60.69
2024-01-15T12:39:57.913Z,60.56
2024-01-15T12:40:57.997Z,62.05
2024-01-15T12:41:58.064Z,61.85
2024-01-15T12:42:58.107Z,61.52
2024-01-15T12:43:58.108Z,61.55
2024-01-15T12:44:58.152Z,60.99
2024-01-15T12:45:58.301Z,60.84
2024-01-15T12:46:58.200Z,60.37
2024-01-15T12:47:58.313Z,60.99
2024-01-15T12:48:58.377Z,61.33
2024-01-15T12:50:06.035Z,61.23
2024-01-15T12:50:59.375Z,61.03
2024-01-15T12:51:58.329Z,61.72
2024-01-15T12:52:58.363Z,61.87
2024-01-15T12:53:58.356Z,61.87
2024-01-15T12:54:58.408Z,62.07
2024-01-15T12:55:58.342Z,61.88
2024-01-15T12:56:58.357Z,61.65
2024-01-15T12:57:58.387Z,61.80
2024-01-15T12:58:58.365Z,61.71
2024-01-15T12:59:58.350Z,61.76
2024-01-15T13:00:58.514Z,61.38
2024-01-15T13:01:58.448Z,61.05
2024-01-15T13:02:58.474Z,61.11
2024-01-15T13:03:58.561Z,60.50
2024-01-15T13:04:58.682Z,60.38
2024-01-15T13:05:58.592Z,60.02
2024-01-15T13:06:58.641Z,59.38
2024-01-15T13:07:58.605Z,59.29
2024-01-15T13:08:58.645Z,59.03
2024-01-15T13:09:58.811Z,59.47
2024-01-15T13:10:58.785Z,59.36
2024-01-15T13:11:58.800Z,59.67
2024-01-15T13:12:59.015Z,59.93
2024-01-15T13:13:58.886Z,59.68
2024-01-15T13:14:58.898Z,59.48
2024-01-15T13:15:59.010Z,60.14
2024-01-15T13:16:58.986Z,60.37
2024-01-15T13:17:59.120Z,60.01
2024-01-15T13:18:59.182Z,60.18
2024-01-15T13:19:59.347Z,59.74
2024-01-15T13:20:59.183Z,59.59
2024-01-15T13:21:59.203Z,59.44
2024-01-15T13:22:59.279Z,59.24
2024-01-15T13:23:59.300Z,58.96
2024-01-15T13:24:59.413Z,59.00
2024-01-15T13:25:59.435Z,58.96
2024-01-15T13:26:59.482Z,58.59
2024-01-15T13:27:59.584Z,58.39
2024-01-15T13:28:59.605Z,58.33
2024-01-15T13:29:59.663Z,58.10
2024-01-15T13:30:59.934Z,58.37
2024-01-15T13:31:59.767Z,58.25
2024-01-15T13:32:59.845Z,58.43
2024-01-15T13:33:59.896Z,58.19
2024-01-15T13:34:59.911Z,58.30
2024-01-15T13:35:59.942Z,58.31
2024-01-15T13:36:59.984Z,58.06
2024-01-15T13:38:00.026Z,57.90
2024-01-15T13:39:00.088Z,58.11
2024-01-15T13:40:00.236Z,57.97
2024-01-15T13:41:00.119Z,57.87
2024-01-15T13:42:00.162Z,57.82
2024-01-15T13:43:00.273Z,57.85
2024-01-15T13:44:00.229Z,57.69
2024-01-15T13:45:00.263Z,57.80
2024-01-15T13:46:00.395Z,58.38
2024-01-15T13:47:00.379Z,58.24
2024-01-15T13:48:00.410Z,58.31
2024-01-15T13:49:00.511Z,58.71
2024-01-15T13:50:07.875Z,58.49
2024-01-15T13:51:07.878Z,58.44
2024-01-15T13:52:07.896Z,58.18
2024-01-15T13:53:07.889Z,58.28
2024-01-15T13:54:07.946Z,58.10
2024-01-15T13:55:08.007Z,58.17
2024-01-15T13:56:07.897Z,58.88
2024-01-15T13:57:07.899Z,58.91
2024-01-15T13:58:07.934Z,58.88
2024-01-15T13:59:07.877Z,58.90
2024-01-15T14:00:07.880Z,58.64
2024-01-15T14:01:08.012Z,58.59
2024-01-15T14:02:07.973Z,58.12
2024-01-15T14:03:08.012Z,58.03
2024-01-15T14:04:07.956Z,58.03
2024-01-15T14:05:07.944Z,58.03
2024-01-15T14:06:07.907Z,58.23
2024-01-15T14:07:07.943Z,58.18
2024-01-15T14:08:07.913Z,58.74
2024-01-15T14:09:07.917Z,59.17
2024-01-15T14:10:08.071Z,60.30
2024-01-15T14:11:07.973Z,60.70
2024-01-15T14:12:07.898Z,61.41
2024-01-15T14:13:07.962Z,61.34
2024-01-15T14:14:07.919Z,61.11
2024-01-15T14:15:07.935Z,61.34
2024-01-15T14:16:07.925Z,61.29
2024-01-15T14:17:07.926Z,61.04
2024-01-15T14:18:08.071Z,60.55
2024-01-15T14:19:08.089Z,60.44
2024-01-15T14:20:08.000Z,60.13
2024-01-15T14:21:07.958Z,60.22
2024-01-15T14:22:07.964Z,60.28
2024-01-15T14:23:07.977Z,60.02
2024-01-15T14:24:08.824Z,60.05
2024-01-15T14:25:39.543Z,61.01
2024-01-15T14:26:07.957Z,61.19
2024-01-15T14:27:07.970Z,61.57
2024-01-15T14:28:08.002Z,61.55
2024-01-15T14:29:07.962Z,61.28
2024-01-15T14:30:07.994Z,61.36
2024-01-15T14:31:08.097Z,61.27
2024-01-15T14:32:07.950Z,60.91
2024-01-15T14:33:08.063Z,61.96
2024-01-15T14:34:08.056Z,62.21
2024-01-15T14:35:08.016Z,63.26
2024-01-15T14:36:07.974Z,63.67
2024-01-15T14:37:08.002Z,63.16
2024-01-15T14:38:07.997Z,63.89
2024-01-15T14:39:07.995Z,63.33
2024-01-15T14:40:08.055Z,63.10
2024-01-15T14:41:07.979Z,62.87
2024-01-15T14:42:07.993Z,62.64
2024-01-15T14:43:08.012Z,62.28
2024-01-15T14:44:07.985Z,62.07
2024-01-15T14:45:08.001Z,62.75
2024-01-15T14:46:08.078Z,62.63
2024-01-15T14:47:08.126Z,62.19
2024-01-15T14:48:08.225Z,61.56
2024-01-15T14:49:08.226Z,61.51
2024-01-15T14:50:08.257Z,61.34
2024-01-15T14:51:08.279Z,60.84
2024-01-15T14:52:08.386Z,60.52
2024-01-15T14:53:08.386Z,59.63
2024-01-15T14:54:08.373Z,59.73
2024-01-15T14:55:08.489Z,59.83
2024-01-15T14:56:08.442Z,59.51
2024-01-15T14:57:08.495Z,59.27
2024-01-15T14:58:08.515Z,59.03
2024-01-15T14:59:08.791Z,59.55
2024-01-15T15:00:08.646Z,59.48
2024-01-15T15:01:08.674Z,59.53
2024-01-15T15:02:09.553Z,59.54
2024-01-15T15:03:08.729Z,59.41
2024-01-15T15:04:08.817Z,59.67
2024-01-15T15:05:08.979Z,59.81
2024-01-15T15:06:09.148Z,59.94
2024-01-15T15:07:08.947Z,59.98
2024-01-15T15:08:08.975Z,59.84
2024-01-15T15:09:09.009Z,59.85
2024-01-15T15:10:09.071Z,59.50
2024-01-15T15:11:09.096Z,59.33
2024-01-15T15:12:09.132Z,58.77
2024-01-15T15:13:09.223Z,58.80
2024-01-15T15:14:09.276Z,58.55
2024-01-15T15:15:11.914Z,58.49
2024-01-15T15:16:09.351Z,58.13
2024-01-15T15:17:09.335Z,58.09
2024-01-15T15:18:09.354Z,57.95
2024-01-15T15:19:09.384Z,57.98
2024-01-15T15:20:09.456Z,57.90
2024-01-15T15:21:09.340Z,57.69
2024-01-15T15:22:09.359Z,57.09
2024-01-15T15:23:09.318Z,57.61
2024-01-15T15:24:09.305Z,58.24
2024-01-15T15:25:09.348Z,58.37
2024-01-15T15:26:09.310Z,58.72
2024-01-15T15:27:09.351Z,58.88
2024-01-15T15:28:09.333Z,59.32
2024-01-15T15:29:09.352Z,60.27
2024-01-15T15:30:11.044Z,60.17
2024-01-15T15:31:09.508Z,60.01
2024-01-15T15:32:09.315Z,59.97
2024-01-15T15:33:09.397Z,60.49
2024-01-15T15:34:09.597Z,61.05
2024-01-15T15:35:09.442Z,61.12
2024-01-15T15:36:09.383Z,61.25
2024-01-15T15:37:09.349Z,61.27
2024-01-15T15:38:09.325Z,61.09
2024-01-15T15:39:09.354Z,61.04
2024-01-15T15:40:09.336Z,60.88
2024-01-15T15:41:09.392Z,61.00
2024-01-15T15:42:09.324Z,61.35
2024-01-15T15:43:09.337Z,62.26
2024-01-15T15:44:09.364Z,62.22
2024-01-15T15:45:09.408Z,61.87
2024-01-15T15:46:09.425Z,61.54
2024-01-15T15:47:09.395Z,60.98
2024-01-15T15:48:09.493Z,60.67